Sentry Page Protection

Latest Glasgow METAR Decoded

What is a METAR?

Raw METAR: EGPF 241750Z 25012KT 9999 FEW014 SCT018 BKN029 15/13 Q1009
Time Published: Fri Sep 24 17:50:00 2021

Altimeter: 1009 hPa (29.80 inHg)
Clouds: Few clouds at 1400ft, Scattered clouds at 1800ft, Broken layer at 2900ft - Reported AGL
Visibility: 10km (6.2sm)
Dewpoint: 13°C (55°F)
Temperature: 15°C (59°F)
Wind: WSW-250 at 12kt

Data pulled from AVWX API.

Customise webcam positions

Apply changes